Time;durP1;ratioP1;P1;durP2;ratioP2;P2;SDS_P1;SDS_P2;PMS_P1;PMS_P2;Temp;Humidity;BMP_temperature;BMP_pressure;BME280_temperature;BME280_humidity;BME280_pressure;Samples;Min_cycle;Max_cycle;Signal;HPM_P1;HPM_P2
2023/06/18 00:00:55;;;;;;;6.13;3.40;;;;;;;17.83;37.73;99891.22;5075172;28;20039;-60
2023/06/18 00:03:20;;;;;;;11.35;4.47;;;;;;;17.84;37.79;99881.25;5074037;28;20367;-60
2023/06/18 00:05:46;;;;;;;7.35;3.97;;;;;;;17.86;37.79;99877.34;5075402;28;20427;-61
2023/06/18 00:08:11;;;;;;;11.27;3.95;;;;;;;17.71;37.98;99843.84;5074912;28;20028;-61
2023/06/18 00:10:37;;;;;;;9.77;4.15;;;;;;;17.78;37.74;99866.50;5072804;28;20036;-61
2023/06/18 00:13:03;;;;;;;6.40;3.67;;;;;;;17.55;37.91;99845.53;5074165;28;20024;-59
2023/06/18 00:15:29;;;;;;;10.65;3.97;;;;;;;17.69;38.03;99867.53;5074165;28;20043;-61
2023/06/18 00:17:55;;;;;;;5.93;3.65;;;;;;;17.64;37.92;99855.38;5089627;28;20136;-61
2023/06/18 00:20:21;;;;;;;6.63;3.95;;;;;;;17.62;37.65;99860.09;5094137;28;20032;-61
2023/06/18 00:22:48;;;;;;;10.43;4.10;;;;;;;17.69;37.86;99864.84;5093670;28;20059;-61
2023/06/18 00:25:13;;;;;;;8.13;3.90;;;;;;;17.70;37.61;99859.22;5085333;28;20537;-61
2023/06/18 00:27:40;;;;;;;10.93;4.05;;;;;;;17.64;37.78;99851.78;5072600;28;20032;-61
2023/06/18 00:30:06;;;;;;;8.35;3.80;;;;;;;17.51;38.29;99865.84;5072034;28;20481;-63
2023/06/18 00:32:34;;;;;;;8.70;4.18;;;;;;;17.56;38.47;99863.47;5073454;28;20028;-61
2023/06/18 00:35:00;;;;;;;10.05;4.60;;;;;;;17.57;38.43;99864.31;5073660;28;20032;-60
2023/06/18 00:37:27;;;;;;;8.43;4.30;;;;;;;17.55;38.39;99864.47;5073393;28;20107;-59
2023/06/18 00:39:55;;;;;;;10.15;4.20;;;;;;;17.55;38.52;99877.19;5073399;28;20028;-58
2023/06/18 00:42:21;;;;;;;8.68;4.13;;;;;;;17.28;38.55;99839.44;5073514;28;20054;-61
2023/06/18 00:44:47;;;;;;;10.35;4.30;;;;;;;17.45;38.71;99874.63;5074182;28;20016;-61
2023/06/18 00:47:13;;;;;;;6.57;4.22;;;;;;;17.44;38.68;99878.34;5090868;28;20039;-60
2023/06/18 00:49:41;;;;;;;7.68;4.70;;;;;;;17.57;38.38;99886.81;5091566;28;20040;-61
2023/06/18 00:52:14;;;;;;;15.32;4.65;;;;;;;17.26;38.63;99841.47;5093489;28;20184;-60
2023/06/18 00:54:41;;;;;;;9.30;4.40;;;;;;;17.47;38.75;99880.72;5073457;28;20040;-59
2023/06/18 00:57:08;;;;;;;10.32;4.90;;;;;;;17.62;38.19;99879.06;5072827;28;20063;-59
2023/06/18 00:59:37;;;;;;;9.50;4.20;;;;;;;17.48;38.30;99860.75;5072828;28;20111;-62
2023/06/18 01:02:03;;;;;;;8.40;4.65;;;;;;;17.64;38.01;99882.44;5091108;28;20206;-61
2023/06/18 01:04:32;;;;;;;8.10;4.40;;;;;;;17.71;37.92;99884.47;5091292;28;20111;-62
2023/06/18 01:07:02;;;;;;;6.72;3.95;;;;;;;17.62;38.29;99887.19;5092823;28;20422;-61
2023/06/18 01:09:29;;;;;;;12.57;4.35;;;;;;;17.68;38.30;99892.94;5092841;28;20028;-61
2023/06/18 01:11:54;;;;;;;10.43;4.35;;;;;;;17.75;37.76;99885.81;5093021;28;20059;-60
2023/06/18 01:14:28;;;;;;;10.18;4.55;;;;;;;17.81;37.85;99898.66;5093098;28;20055;-60
2023/06/18 01:16:56;;;;;;;6.60;4.38;;;;;;;17.79;38.10;99898.84;5091040;28;20028;-60
2023/06/18 01:19:49;;;;;;;11.80;4.40;;;;;;;17.99;37.74;99894.94;5092771;28;20052;-58
2023/06/18 01:22:41;;;;;;;8.90;3.88;;;;;;;18.12;37.39;99899.88;5093105;28;20035;-62
2023/06/18 01:25:08;;;;;;;7.85;4.25;;;;;;;18.05;37.47;99892.44;5076515;28;20104;-61
2023/06/18 01:27:40;;;;;;;10.88;4.50;;;;;;;18.15;37.55;99897.66;5090514;28;20478;-60
2023/06/18 01:30:11;;;;;;;8.68;4.03;;;;;;;18.36;36.86;99907.13;5092908;28;20024;-61
2023/06/18 01:32:38;;;;;;;15.32;4.32;;;;;;;18.44;36.53;99907.09;5091758;28;20145;-61
2023/06/18 01:35:06;;;;;;;6.60;4.20;;;;;;;18.51;36.47;99904.53;5091484;28;20031;-61
2023/06/18 01:37:50;;;;;;;7.50;4.13;;;;;;;18.65;36.23;99901.09;5090675;28;20091;-58
2023/06/18 01:40:28;;;;;;;7.88;4.03;;;;;;;18.83;35.82;99900.00;5092643;28;20032;-61
2023/06/18 01:43:12;;;;;;;8.15;4.45;;;;;;;18.78;36.02;99919.50;5092046;28;20032;-61
2023/06/18 01:45:52;;;;;;;9.00;3.60;;;;;;;18.83;36.06;99912.75;5090391;28;20036;-60
2023/06/18 01:48:21;;;;;;;15.27;4.65;;;;;;;18.88;35.69;99922.00;5092591;28;20112;-60
2023/06/18 01:50:48;;;;;;;7.90;4.72;;;;;;;18.94;35.78;99910.50;5092664;28;20055;-61
2023/06/18 01:53:17;;;;;;;7.72;4.50;;;;;;;19.10;35.45;99907.91;5092436;28;20104;-59
2023/06/18 01:55:47;;;;;;;7.20;4.00;;;;;;;18.96;35.62;99887.75;5092204;28;20106;-61
2023/06/18 01:58:13;;;;;;;10.50;4.35;;;;;;;19.01;35.31;99923.38;5092748;28;20060;-60
2023/06/18 02:00:40;;;;;;;10.48;4.50;;;;;;;19.02;35.39;99912.31;5087745;28;20123;-61
2023/06/18 02:03:05;;;;;;;7.53;4.20;;;;;;;18.98;35.58;99918.28;5090554;28;20024;-59
2023/06/18 02:05:31;;;;;;;12.45;3.97;;;;;;;18.93;35.93;99916.06;5092074;28;20441;-58
2023/06/18 02:07:56;;;;;;;8.18;4.13;;;;;;;18.98;35.28;99920.97;5091675;28;20024;-60
2023/06/18 02:10:22;;;;;;;8.63;4.10;;;;;;;19.04;35.51;99915.69;5091515;28;20042;-58
2023/06/18 02:12:48;;;;;;;7.72;4.60;;;;;;;19.11;35.11;99915.00;5092093;28;20032;-61
2023/06/18 02:15:14;;;;;;;11.45;4.70;;;;;;;18.96;35.58;99917.59;5091921;28;20099;-60
2023/06/18 02:17:40;;;;;;;9.27;4.28;;;;;;;18.92;35.93;99925.22;5082950;28;20481;-62
2023/06/18 02:20:08;;;;;;;9.90;4.70;;;;;;;18.85;35.59;99919.66;5072197;28;20379;-58
2023/06/18 02:22:34;;;;;;;8.35;4.20;;;;;;;18.61;35.97;99896.22;5071146;28;20032;-61
2023/06/18 02:25:01;;;;;;;6.70;4.05;;;;;;;18.71;36.07;99932.09;5071774;28;20033;-66
2023/06/18 02:27:29;;;;;;;9.30;4.18;;;;;;;18.63;36.45;99924.81;5072214;28;20442;-60
2023/06/18 02:29:55;;;;;;;11.68;4.55;;;;;;;18.63;36.66;99926.69;5071284;28;20033;-61
2023/06/18 02:32:20;;;;;;;9.55;4.40;;;;;;;18.68;36.13;99921.59;5070638;28;20063;-62
2023/06/18 02:34:45;;;;;;;8.55;4.40;;;;;;;18.65;36.71;99932.78;5072924;28;20029;-60
2023/06/18 02:37:11;;;;;;;9.68;4.63;;;;;;;18.61;36.65;99926.03;5071474;28;20024;-60
2023/06/18 02:39:36;;;;;;;9.07;5.00;;;;;;;18.48;36.97;99929.28;5071696;28;20031;-60
2023/06/18 02:42:02;;;;;;;13.80;4.65;;;;;;;18.43;37.10;99935.22;5071061;28;20431;-62
2023/06/18 02:44:28;;;;;;;12.27;5.00;;;;;;;18.50;37.12;99938.91;5071901;28;20043;-61
2023/06/18 02:46:55;;;;;;;11.65;4.38;;;;;;;18.33;36.98;99910.19;5073324;28;20075;-60
2023/06/18 02:49:21;;;;;;;10.43;5.30;;;;;;;18.55;37.01;99941.13;5075385;28;20032;-60
2023/06/18 02:51:47;;;;;;;12.32;4.45;;;;;;;18.70;36.66;99938.53;5075253;28;20028;-60
2023/06/18 02:54:13;;;;;;;8.75;4.85;;;;;;;18.79;36.46;99940.19;5075510;28;20325;-60
2023/06/18 02:56:38;;;;;;;9.13;4.55;;;;;;;18.87;36.84;99933.88;5075055;28;20102;-61
2023/06/18 02:59:04;;;;;;;9.95;4.70;;;;;;;18.89;36.10;99917.44;5091025;28;20082;-61
2023/06/18 03:01:31;;;;;;;10.05;4.55;;;;;;;18.94;35.58;99923.19;5095636;28;20039;-60
2023/06/18 03:03:57;;;;;;;6.72;4.05;;;;;;;19.10;35.31;99940.47;5093482;28;20101;-60
2023/06/18 03:06:23;;;;;;;8.02;4.75;;;;;;;19.14;35.54;99936.38;5095088;28;20058;-62
2023/06/18 03:08:49;;;;;;;8.10;4.68;;;;;;;19.28;35.27;99941.03;5095405;28;20494;-61
2023/06/18 03:11:15;;;;;;;10.73;4.82;;;;;;;19.35;35.56;99938.44;5095347;28;20064;-60
2023/06/18 03:13:40;;;;;;;8.32;4.70;;;;;;;19.56;35.31;99940.53;5094912;28;20055;-61
2023/06/18 03:16:06;;;;;;;8.98;4.97;;;;;;;19.84;34.69;99936.41;5094174;28;20028;-61
2023/06/18 03:18:32;;;;;;;10.18;5.25;;;;;;;20.17;34.15;99945.16;5087214;28;20043;-59
2023/06/18 03:20:57;;;;;;;12.68;5.47;;;;;;;20.43;33.71;99943.91;5073654;28;20088;-61
2023/06/18 03:23:23;;;;;;;11.20;5.60;;;;;;;20.48;33.30;99941.44;5074586;28;20743;-60
2023/06/18 03:25:49;;;;;;;15.82;5.50;;;;;;;20.57;33.40;99939.50;5073897;28;20044;-61
2023/06/18 03:28:15;;;;;;;10.15;5.60;;;;;;;20.73;33.49;99943.91;5074572;28;20028;-60
2023/06/18 03:30:41;;;;;;;7.45;4.72;;;;;;;20.99;31.83;99937.19;5074403;28;20051;-60
2023/06/18 03:33:08;;;;;;;11.90;5.70;;;;;;;21.37;31.66;99942.44;5074658;28;20101;-62
2023/06/18 03:35:36;;;;;;;8.10;4.53;;;;;;;21.73;30.71;99937.22;5075071;28;20346;-67
2023/06/18 03:38:02;;;;;;;12.50;5.50;;;;;;;22.18;30.48;99935.06;5074925;28;20032;-60
2023/06/18 03:40:28;;;;;;;9.55;5.20;;;;;;;22.53;30.19;99938.91;5075227;28;20024;-61
2023/06/18 03:42:53;;;;;;;9.40;4.57;;;;;;;23.08;28.76;99942.56;5074478;28;20024;-61
2023/06/18 03:45:19;;;;;;;9.45;3.55;;;;;;;23.89;27.12;99939.22;5074584;28;20031;-62
2023/06/18 03:47:44;;;;;;;5.88;3.60;;;;;;;24.64;25.69;99954.59;5074571;28;20025;-61
2023/06/18 03:50:10;;;;;;;6.07;3.60;;;;;;;25.56;24.57;99947.34;5073404;28;20119;-61
2023/06/18 03:52:36;;;;;;;8.70;3.30;;;;;;;26.69;22.41;99952.97;5073250;28;20086;-64
2023/06/18 03:55:01;;;;;;;4.80;3.03;;;;;;;27.46;21.65;99939.78;5074901;28;20036;-61
2023/06/18 03:57:27;;;;;;;4.57;3.08;;;;;;;28.24;20.79;99934.41;5078211;28;20028;-61
2023/06/18 03:59:53;;;;;;;5.72;2.90;;;;;;;28.77;20.51;99942.75;5094096;28;20044;-62
2023/06/18 04:02:19;;;;;;;6.55;3.17;;;;;;;29.45;19.44;99939.50;5075371;28;20036;-61
2023/06/18 04:04:45;;;;;;;10.07;3.63;;;;;;;30.18;18.66;99938.84;5074340;28;20048;-61
2023/06/18 04:07:11;;;;;;;4.68;3.05;;;;;;;30.82;17.80;99926.53;5073047;28;20399;-61
2023/06/18 04:09:36;;;;;;;7.00;3.10;;;;;;;31.23;17.16;99934.53;5073015;28;20116;-68
2023/06/18 04:12:02;;;;;;;5.05;2.97;;;;;;;31.49;16.62;99952.25;5083534;28;20032;-60
2023/06/18 04:14:28;;;;;;;8.50;2.92;;;;;;;31.49;16.76;99945.88;5094317;28;20103;-62
2023/06/18 04:16:53;;;;;;;6.32;3.20;;;;;;;31.55;16.72;99944.81;5093948;28;20115;-61
2023/06/18 04:19:19;;;;;;;5.47;2.53;;;;;;;32.13;16.20;99944.25;5093581;28;20048;-61
2023/06/18 04:21:44;;;;;;;6.22;2.80;;;;;;;33.00;15.63;99945.91;5080619;28;20451;-61
2023/06/18 04:24:10;;;;;;;5.85;2.88;;;;;;;33.93;14.20;99957.25;5073978;28;20039;-62
2023/06/18 04:26:35;;;;;;;8.13;3.28;;;;;;;34.91;13.57;99953.53;5073809;28;20101;-61
2023/06/18 04:29:01;;;;;;;8.30;2.60;;;;;;;35.17;13.21;99931.19;5073387;28;20028;-61
2023/06/18 04:31:27;;;;;;;6.90;3.08;;;;;;;35.56;12.93;99937.94;5073277;28;20052;-62
2023/06/18 04:33:52;;;;;;;6.10;2.45;;;;;;;36.03;12.42;99959.91;5076107;28;20030;-61
2023/06/18 04:36:18;;;;;;;4.53;2.78;;;;;;;36.43;12.01;99957.00;5093521;28;20050;-61
2023/06/18 04:38:43;;;;;;;6.57;3.05;;;;;;;36.70;12.13;99950.91;5092523;28;20032;-61
2023/06/18 04:41:09;;;;;;;4.30;2.53;;;;;;;37.05;11.79;99959.97;5091479;28;20446;-62
2023/06/18 04:43:34;;;;;;;5.50;3.20;;;;;;;37.33;11.73;99951.78;5093741;28;20082;-61
2023/06/18 04:46:00;;;;;;;5.85;3.00;;;;;;;37.95;10.94;99943.63;5093326;28;20028;-60
2023/06/18 04:48:27;;;;;;;8.23;2.95;;;;;;;38.72;10.28;99959.03;5093191;28;20111;-61
2023/06/18 04:50:53;;;;;;;3.95;2.80;;;;;;;38.46;10.26;99955.88;5092308;28;20027;-62
2023/06/18 04:53:18;;;;;;;6.53;2.88;;;;;;;38.70;10.48;99957.66;5093201;28;20047;-61
2023/06/18 04:55:44;;;;;;;5.63;2.90;;;;;;;38.30;10.26;99970.13;5091405;28;20024;-61
2023/06/18 04:58:10;;;;;;;4.45;2.67;;;;;;;38.37;10.48;99969.75;5093184;28;20028;-61
2023/06/18 05:00:36;;;;;;;5.50;2.80;;;;;;;37.86;10.53;99961.09;5090209;28;20119;-61
2023/06/18 05:03:03;;;;;;;5.70;2.83;;;;;;;38.01;10.79;99959.19;5091875;28;20115;-61
2023/06/18 05:05:28;;;;;;;5.53;3.08;;;;;;;38.86;10.03;99969.41;5093119;28;20177;-62
2023/06/18 05:07:55;;;;;;;4.07;3.00;;;;;;;39.44;9.39;99953.91;5092954;28;20184;-61
2023/06/18 05:10:21;;;;;;;4.13;2.80;;;;;;;39.04;9.42;99967.63;5092089;28;20039;-61
2023/06/18 05:12:47;;;;;;;6.95;3.17;;;;;;;39.14;9.21;99966.59;5092207;28;20020;-64
2023/06/18 05:15:13;;;;;;;5.63;2.65;;;;;;;39.38;9.05;99955.16;5086724;28;20035;-62
2023/06/18 05:17:38;;;;;;;4.95;2.50;;;;;;;39.31;9.27;99949.13;5072437;28;20076;-61
2023/06/18 05:20:05;;;;;;;4.82;2.45;;;;;;;39.41;9.37;99953.72;5092748;28;20135;-63
2023/06/18 05:22:33;;;;;;;4.28;2.50;;;;;;;39.61;8.90;99967.22;5093284;28;20100;-59
2023/06/18 05:24:59;;;;;;;4.47;2.80;;;;;;;39.97;8.99;99957.16;5091959;28;20338;-64
2023/06/18 05:27:28;;;;;;;5.68;2.80;;;;;;;40.85;8.43;99970.81;5092945;28;20024;-62
2023/06/18 05:29:54;;;;;;;5.38;2.80;;;;;;;40.42;8.29;99963.88;5092298;28;20036;-63
2023/06/18 05:32:20;;;;;;;4.90;3.00;;;;;;;40.56;8.72;99963.75;5092802;28;20036;-71
2023/06/18 05:34:46;;;;;;;5.43;2.67;;;;;;;41.04;7.99;99971.38;5071561;28;20059;-68
2023/06/18 05:37:11;;;;;;;5.50;3.17;;;;;;;41.66;7.69;99945.34;5072482;28;20051;-71
2023/06/18 05:39:37;;;;;;;7.00;2.88;;;;;;;41.86;7.48;99957.91;5073989;28;20056;-69
2023/06/18 05:42:03;;;;;;;5.30;2.83;;;;;;;41.54;7.79;99951.63;5071826;28;20070;-67
2023/06/18 05:44:28;;;;;;;3.28;2.72;;;;;;;42.06;7.10;99983.69;5071776;28;20036;-67
2023/06/18 05:46:54;;;;;;;4.07;2.83;;;;;;;42.52;7.31;99970.03;5072673;28;20046;-69
2023/06/18 05:49:20;;;;;;;6.05;2.67;;;;;;;42.98;6.68;99971.16;5071765;28;20350;-66
2023/06/18 05:51:46;;;;;;;6.93;2.72;;;;;;;42.14;6.92;99947.13;5072797;28;20028;-68
2023/06/18 05:54:12;;;;;;;5.72;2.75;;;;;;;42.54;7.21;99967.72;5054438;28;20055;-72
2023/06/18 05:56:37;;;;;;;5.97;3.33;;;;;;;43.83;6.64;99970.41;5072094;28;20037;-68
2023/06/18 05:59:03;;;;;;;3.30;2.65;;;;;;;44.01;6.53;99963.41;5072510;28;20025;-67
2023/06/18 06:01:29;;;;;;;4.28;3.00;;;;;;;43.56;6.33;99967.78;5072287;28;20439;-67
2023/06/18 06:03:54;;;;;;;3.38;2.97;;;;;;;43.34;6.63;99956.84;5054540;28;20110;-66
2023/06/18 06:06:20;;;;;;;3.33;2.90;;;;;;;43.73;6.50;99957.56;5070263;28;20025;-68
2023/06/18 06:08:45;;;;;;;4.47;2.72;;;;;;;44.28;6.46;99932.09;5071726;28;20020;-67
2023/06/18 06:11:11;;;;;;;7.93;3.10;;;;;;;45.63;5.56;99959.78;5071025;28;20638;-68
2023/06/18 06:13:37;;;;;;;5.22;2.70;;;;;;;46.05;5.50;99959.34;5075893;28;20032;-68
2023/06/18 06:16:02;;;;;;;3.13;2.60;;;;;;;46.55;5.21;99953.44;5070677;28;20043;-68
2023/06/18 06:18:28;;;;;;;6.50;3.10;;;;;;;47.72;4.79;99966.19;5070928;28;20094;-68
2023/06/18 06:20:54;;;;;;;5.15;2.92;;;;;;;48.52;4.32;99959.19;5071433;28;20028;-68
2023/06/18 06:23:20;;;;;;;5.55;2.85;;;;;;;48.97;4.14;99957.47;5075142;28;20060;-68
2023/06/18 06:25:46;;;;;;;4.95;3.00;;;;;;;48.99;4.10;99954.22;5075317;28;20391;-69
2023/06/18 06:28:11;;;;;;;5.05;3.22;;;;;;;48.93;4.16;99939.53;5075880;28;20028;-68
2023/06/18 06:30:37;;;;;;;3.95;2.72;;;;;;;49.07;4.18;99952.31;5074229;28;20075;-69
2023/06/18 06:33:03;;;;;;;4.70;3.00;;;;;;;49.76;4.26;99951.19;5069281;28;20400;-67
2023/06/18 06:35:29;;;;;;;8.05;3.13;;;;;;;50.19;3.45;99945.13;5075673;28;20322;-65
2023/06/18 06:37:55;;;;;;;5.38;2.90;;;;;;;49.99;3.99;99953.09;5074346;28;20035;-66
2023/06/18 06:40:21;;;;;;;4.32;3.15;;;;;;;50.45;3.60;99951.09;5075972;28;20454;-66
2023/06/18 06:42:47;;;;;;;6.10;3.00;;;;;;;50.84;3.41;99947.69;5073832;28;20028;-65
2023/06/18 06:45:12;;;;;;;5.15;3.00;;;;;;;51.31;3.14;99927.22;5074165;28;20017;-66
2023/06/18 06:47:38;;;;;;;6.97;3.40;;;;;;;52.13;3.11;99947.84;5072541;28;20040;-69
2023/06/18 06:50:03;;;;;;;4.43;3.78;;;;;;;51.40;2.94;99953.34;5074404;28;20048;-67
2023/06/18 06:52:31;;;;;;;3.92;3.63;;;;;;;49.98;3.70;99940.06;5076339;28;20040;-64
2023/06/18 06:54:56;;;;;;;5.18;3.35;;;;;;;48.99;4.26;99931.50;5074628;28;20389;-64
2023/06/18 06:57:22;;;;;;;4.75;3.70;;;;;;;49.69;4.03;99945.44;5074637;28;20036;-64
2023/06/18 06:59:47;;;;;;;6.07;3.30;;;;;;;50.48;3.15;99947.44;5074864;28;20104;-64
2023/06/18 07:02:13;;;;;;;5.10;3.60;;;;;;;50.32;3.82;99945.69;5074857;28;20024;-64
2023/06/18 07:04:39;;;;;;;6.75;3.97;;;;;;;51.00;3.17;99940.91;5080604;28;20064;-63
2023/06/18 07:07:04;;;;;;;4.47;3.63;;;;;;;50.81;3.38;99942.81;5094377;28;20047;-64
2023/06/18 07:09:30;;;;;;;6.88;3.80;;;;;;;50.49;3.43;99941.31;5095608;28;20028;-63
2023/06/18 07:11:56;;;;;;;4.50;3.53;;;;;;;51.04;3.35;99939.72;5095034;28;20040;-66
2023/06/18 07:14:21;;;;;;;5.22;3.22;;;;;;;51.96;2.93;99930.25;5094043;28;20043;-65
2023/06/18 07:16:47;;;;;;;7.28;3.63;;;;;;;53.03;2.55;99913.50;5095204;28;20028;-65
2023/06/18 07:19:13;;;;;;;4.40;4.00;;;;;;;53.45;2.45;99936.59;5095445;28;20040;-65
2023/06/18 07:21:38;;;;;;;4.28;3.85;;;;;;;51.69;2.98;99945.69;5095166;28;20480;-64
2023/06/18 07:24:04;;;;;;;3.83;3.47;;;;;;;50.48;3.42;99955.97;5095200;28;20034;-63
2023/06/18 07:26:30;;;;;;;4.35;3.55;;;;;;;50.21;3.52;99934.16;5094227;28;20372;-64
2023/06/18 07:28:55;;;;;;;7.50;3.50;;;;;;;51.16;3.03;99918.59;5086269;28;20091;-64
2023/06/18 07:31:21;;;;;;;5.75;3.47;;;;;;;52.37;2.65;99935.63;5074540;28;20048;-63
2023/06/18 07:33:46;;;;;;;4.35;3.53;;;;;;;53.61;2.47;99924.66;5088274;28;20032;-68
2023/06/18 07:36:12;;;;;;;4.28;3.88;;;;;;;53.66;1.76;99920.53;5095451;28;20043;-64
2023/06/18 07:38:37;;;;;;;5.28;4.00;;;;;;;53.43;2.14;99933.34;5094880;28;20450;-64
2023/06/18 07:41:03;;;;;;;5.15;4.47;;;;;;;53.48;1.90;99921.47;5093761;28;20441;-63
2023/06/18 07:43:28;;;;;;;5.68;4.28;;;;;;;52.80;2.36;99916.78;5094850;28;20024;-64
2023/06/18 07:45:54;;;;;;;7.65;4.57;;;;;;;51.92;2.73;99918.84;5093677;28;20028;-64
2023/06/18 07:48:20;;;;;;;8.25;4.18;;;;;;;51.61;3.17;99926.09;5090974;28;20028;-65
2023/06/18 07:50:45;;;;;;;4.18;3.83;;;;;;;52.01;2.74;99927.03;5094919;28;20036;-63
2023/06/18 07:53:11;;;;;;;4.45;4.00;;;;;;;52.36;2.77;99930.31;5085786;28;20028;-63
2023/06/18 07:55:36;;;;;;;5.53;3.47;;;;;;;52.97;2.17;99915.94;5074427;28;20044;-63
2023/06/18 07:58:02;;;;;;;4.10;3.75;;;;;;;53.19;2.19;99901.56;5074605;28;20098;-64
2023/06/18 08:00:29;;;;;;;7.57;4.88;;;;;;;53.24;2.19;99924.00;5073378;28;20028;-65
2023/06/18 08:02:54;;;;;;;4.53;4.13;;;;;;;52.07;2.36;99921.75;5073804;28;20035;-64
2023/06/18 08:05:20;;;;;;;7.63;4.22;;;;;;;51.19;3.19;99916.97;5087091;28;20459;-66
2023/06/18 08:07:46;;;;;;;4.93;3.90;;;;;;;50.56;3.38;99923.47;5094006;28;20371;-64
2023/06/18 08:10:12;;;;;;;4.85;3.70;;;;;;;50.51;3.49;99906.75;5094205;28;20040;-64
2023/06/18 08:12:37;;;;;;;3.72;3.42;;;;;;;50.59;3.25;99908.47;5086379;28;20375;-63
2023/06/18 08:15:04;;;;;;;5.05;3.80;;;;;;;50.34;3.80;99917.63;5074908;28;20443;-64
2023/06/18 08:17:32;;;;;;;5.10;3.90;;;;;;;49.75;3.46;99909.72;5073508;28;20493;-64
2023/06/18 08:19:57;;;;;;;4.05;3.60;;;;;;;48.91;4.11;99913.53;5075057;28;20060;-64
2023/06/18 08:22:23;;;;;;;6.70;3.60;;;;;;;47.54;4.79;99884.41;5073691;28;20340;-64
2023/06/18 08:24:48;;;;;;;4.10;3.30;;;;;;;45.62;5.29;99901.59;5073890;28;20024;-64
2023/06/18 08:27:15;;;;;;;5.30;2.88;;;;;;;42.49;6.90;99909.63;5073641;28;20024;-64
2023/06/18 08:29:40;;;;;;;12.25;3.10;;;;;;;39.09;8.56;99889.16;5073451;28;20040;-65
2023/06/18 08:32:06;;;;;;;3.20;2.78;;;;;;;36.43;10.42;99912.41;5074317;28;20035;-64
2023/06/18 08:34:33;;;;;;;5.57;3.10;;;;;;;34.22;12.49;99915.03;5073472;28;20044;-64
2023/06/18 08:36:59;;;;;;;4.32;3.00;;;;;;;32.86;13.05;99915.06;5072366;28;20115;-65
2023/06/18 08:39:26;;;;;;;4.47;3.08;;;;;;;31.47;14.90;99907.41;5073341;28;20028;-64
2023/06/18 08:41:54;;;;;;;4.90;2.80;;;;;;;30.67;15.33;99913.38;5073467;28;20419;-64
2023/06/18 08:44:23;;;;;;;5.88;3.42;;;;;;;30.18;15.33;99911.25;5073964;28;20059;-63
2023/06/18 08:46:49;;;;;;;3.80;2.83;;;;;;;29.42;16.04;99887.56;5073537;28;20032;-63
2023/06/18 08:49:16;;;;;;;4.03;2.97;;;;;;;28.96;16.72;99899.38;5073434;28;20432;-64
2023/06/18 08:51:44;;;;;;;5.03;3.03;;;;;;;28.62;17.16;99907.44;5072428;28;20043;-64
2023/06/18 08:54:21;;;;;;;4.90;2.75;;;;;;;28.51;17.37;99904.47;5073165;28;20097;-64
2023/06/18 08:56:55;;;;;;;5.47;3.20;;;;;;;28.35;17.51;99902.44;5073030;28;20024;-64
2023/06/18 08:59:21;;;;;;;8.02;3.28;;;;;;;28.01;18.20;99866.41;5073491;28;20032;-64
2023/06/18 09:01:47;;;;;;;9.32;3.17;;;;;;;28.11;18.27;99896.91;5072941;28;20089;-64
2023/06/18 09:04:14;;;;;;;7.22;3.30;;;;;;;27.94;18.87;99902.28;5072967;28;20471;-64
2023/06/18 09:06:41;;;;;;;6.70;3.90;;;;;;;27.77;19.11;99888.41;5071780;28;20028;-66
2023/06/18 09:09:07;;;;;;;9.15;3.60;;;;;;;27.61;18.98;99888.00;5072828;28;20028;-63
2023/06/18 09:11:33;;;;;;;7.60;3.50;;;;;;;27.58;19.23;99893.97;5072593;28;20037;-64
2023/06/18 09:13:59;;;;;;;10.23;3.08;;;;;;;27.46;19.30;99860.91;5072200;28;20045;-63
2023/06/18 09:16:25;;;;;;;4.35;3.30;;;;;;;27.49;19.14;99887.06;5071963;28;20476;-66
2023/06/18 09:18:50;;;;;;;9.43;3.28;;;;;;;27.32;19.18;99876.75;5070344;28;20048;-66
2023/06/18 09:21:42;;;;;;;6.13;3.42;;;;;;;27.42;19.20;99891.84;5070922;28;20060;-65
2023/06/18 09:24:17;;;;;;;7.38;3.22;;;;;;;27.17;19.08;99881.84;5069257;28;20052;-65
2023/06/18 09:26:43;;;;;;;5.72;2.95;;;;;;;26.89;19.84;99877.78;5069116;28;20109;-64
2023/06/18 09:29:09;;;;;;;5.13;3.22;;;;;;;26.68;20.12;99879.06;5070145;28;20043;-64
2023/06/18 09:31:44;;;;;;;7.80;3.60;;;;;;;26.75;19.67;99882.56;5068339;28;20458;-63
2023/06/18 09:34:17;;;;;;;4.07;3.30;;;;;;;26.76;20.25;99885.06;5072618;28;20370;-64
2023/06/18 09:36:45;;;;;;;7.30;3.47;;;;;;;26.52;21.07;99873.09;5071899;28;20807;-64
2023/06/18 09:39:14;;;;;;;6.00;3.45;;;;;;;26.60;20.50;99880.22;5072208;28;20063;-64
2023/06/18 09:41:40;;;;;;;5.78;3.30;;;;;;;26.44;20.74;99856.94;5070944;28;20031;-66
2023/06/18 09:44:07;;;;;;;8.90;3.55;;;;;;;26.60;20.89;99869.22;5072911;28;20025;-64
2023/06/18 09:46:33;;;;;;;8.48;3.85;;;;;;;26.65;20.71;99863.88;5071916;28;20043;-65
2023/06/18 09:49:00;;;;;;;7.22;3.55;;;;;;;26.68;20.45;99865.34;5071547;28;20120;-63
2023/06/18 09:51:26;;;;;;;7.68;3.72;;;;;;;26.78;20.73;99865.63;5074471;28;20032;-64
2023/06/18 09:53:59;;;;;;;8.73;3.55;;;;;;;26.91;20.12;99860.00;5070296;28;20028;-64
2023/06/18 09:56:25;;;;;;;6.40;3.35;;;;;;;26.92;20.16;99860.81;5070414;28;20502;-67
2023/06/18 09:58:51;;;;;;;5.72;3.33;;;;;;;26.93;20.21;99854.25;5073772;28;20028;-65
2023/06/18 10:01:18;;;;;;;9.68;4.50;;;;;;;26.75;20.74;99861.41;5071306;28;20482;-65
2023/06/18 10:03:45;;;;;;;7.47;4.00;;;;;;;26.65;21.48;99869.38;5070808;28;20120;-63
2023/06/18 10:06:13;;;;;;;6.68;3.70;;;;;;;26.72;20.71;99864.63;5071907;28;20037;-62
2023/06/18 10:08:46;;;;;;;8.48;3.72;;;;;;;26.54;20.53;99861.91;5071862;28;20093;-64
2023/06/18 10:11:13;;;;;;;7.05;4.07;;;;;;;26.48;20.78;99842.50;5068355;28;20025;-64
2023/06/18 10:13:46;;;;;;;6.20;3.80;;;;;;;26.56;20.78;99857.03;5071604;28;20103;-65
2023/06/18 10:16:20;;;;;;;6.35;4.15;;;;;;;26.39;20.74;99865.84;5075664;28;20030;-67
2023/06/18 10:18:51;;;;;;;5.40;3.72;;;;;;;26.01;21.51;99832.00;5090182;28;20104;-64
2023/06/18 10:21:18;;;;;;;9.88;4.05;;;;;;;26.20;21.70;99863.09;5091622;28;20119;-64
2023/06/18 10:23:47;;;;;;;8.88;4.15;;;;;;;26.37;20.84;99862.50;5091380;28;20099;-66
2023/06/18 10:26:13;;;;;;;7.75;3.90;;;;;;;26.54;20.98;99859.16;5092041;28;20028;-65
2023/06/18 10:28:39;;;;;;;7.05;3.90;;;;;;;26.78;20.71;99851.88;5091857;28;20093;-66
2023/06/18 10:31:06;;;;;;;7.47;4.15;;;;;;;27.02;20.72;99846.53;5074112;28;20063;-66
2023/06/18 10:33:34;;;;;;;4.35;3.55;;;;;;;27.28;20.29;99836.22;5090477;28;20040;-66
2023/06/18 10:36:00;;;;;;;8.02;4.13;;;;;;;27.62;19.65;99845.66;5075127;28;20085;-66
2023/06/18 10:38:26;;;;;;;8.35;3.92;;;;;;;27.79;19.66;99850.47;5073230;28;20024;-67
2023/06/18 10:41:12;;;;;;;10.02;4.20;;;;;;;28.05;19.66;99849.16;5091110;28;20035;-67
2023/06/18 10:43:41;;;;;;;6.78;3.42;;;;;;;28.16;19.70;99841.19;5079328;28;20116;-66
2023/06/18 10:46:11;;;;;;;6.63;3.50;;;;;;;28.32;18.67;99843.19;5070411;28;20097;-65
2023/06/18 10:48:37;;;;;;;7.75;3.45;;;;;;;28.42;18.79;99820.53;5071185;28;20029;-65
2023/06/18 10:51:17;;;;;;;7.13;3.53;;;;;;;28.64;18.73;99839.19;5078377;28;20032;-65
2023/06/18 10:53:44;;;;;;;7.32;3.42;;;;;;;28.42;18.21;99839.00;5090461;28;20741;-64
2023/06/18 10:56:10;;;;;;;5.40;3.42;;;;;;;28.10;18.57;99834.69;5090993;28;20126;-64
2023/06/18 10:58:39;;;;;;;5.45;3.05;;;;;;;27.67;18.24;99809.22;5078606;28;20029;-65
2023/06/18 11:01:06;;;;;;;7.15;3.47;;;;;;;27.62;19.02;99823.66;5071081;28;20056;-66
2023/06/18 11:03:37;;;;;;;3.88;2.85;;;;;;;27.68;18.83;99843.03;5053678;28;20032;-65
2023/06/18 11:06:07;;;;;;;6.10;3.50;;;;;;;27.74;18.65;99831.09;5071043;28;20115;-65
2023/06/18 11:08:34;;;;;;;6.05;3.13;;;;;;;27.55;19.14;99831.19;5074753;28;20032;-65
2023/06/18 11:11:04;;;;;;;5.50;3.20;;;;;;;27.51;19.47;99832.75;5076783;28;20056;-65
2023/06/18 11:13:34;;;;;;;5.38;3.05;;;;;;;27.38;19.40;99833.75;5074775;28;20036;-67
2023/06/18 11:16:05;;;;;;;3.95;2.75;;;;;;;27.44;19.19;99832.81;5074420;28;20028;-66
2023/06/18 11:18:32;;;;;;;6.32;2.80;;;;;;;27.31;18.05;99833.00;5074617;28;20086;-65
2023/06/18 11:20:59;;;;;;;6.15;2.95;;;;;;;27.34;18.44;99827.03;5074005;28;20044;-64
2023/06/18 11:23:26;;;;;;;5.57;2.72;;;;;;;27.42;18.09;99832.22;5073970;28;20120;-65
2023/06/18 11:25:52;;;;;;;8.10;3.20;;;;;;;27.14;19.30;99817.22;5074898;28;20085;-65
2023/06/18 11:28:19;;;;;;;4.80;3.03;;;;;;;27.05;18.95;99829.59;5075041;28;20028;-65
2023/06/18 11:30:51;;;;;;;4.07;3.10;;;;;;;26.76;19.31;99827.38;5082177;28;20081;-65
2023/06/18 11:33:29;;;;;;;4.28;2.97;;;;;;;26.45;19.45;99821.03;5093890;28;20367;-66